createdAt,value
2019-03-30T00:00:38.514Z,79.69
2019-03-30T00:03:08.056Z,79.97
2019-03-30T00:05:39.156Z,79.97
2019-03-30T00:08:08.540Z,79.69
2019-03-30T00:10:38.373Z,79.63
2019-03-30T00:13:08.046Z,79.62
2019-03-30T00:15:39.918Z,79.70
2019-03-30T00:18:09.294Z,80.36
2019-03-30T00:20:38.685Z,81.72
2019-03-30T00:23:08.172Z,81.91
2019-03-30T00:25:37.570Z,81.91
2019-03-30T00:28:09.676Z,82.01
2019-03-30T00:30:39.335Z,82.01
2019-03-30T00:33:09.006Z,81.50
2019-03-30T00:35:38.655Z,81.41
2019-03-30T00:38:08.466Z,82.21
2019-03-30T00:40:37.924Z,82.21
2019-03-30T00:43:07.666Z,82.34
2019-03-30T00:45:37.054Z,82.39
2019-03-30T00:48:06.844Z,83.46
2019-03-30T00:50:36.805Z,83.46
2019-03-30T00:53:06.777Z,83.85
2019-03-30T00:55:36.435Z,83.85
2019-03-30T00:58:05.807Z,83.91
2019-03-30T01:00:35.466Z,83.87
2019-03-30T01:03:04.833Z,83.97
2019-03-30T01:05:34.487Z,84.09
2019-03-30T01:08:03.866Z,84.16
2019-03-30T01:10:33.526Z,84.35
2019-03-30T01:13:03.872Z,84.65
2019-03-30T01:15:33.529Z,84.77
2019-03-30T01:18:02.976Z,85.03
2019-03-30T01:20:32.455Z,85.28
2019-03-30T01:23:01.824Z,85.54
2019-03-30T01:25:31.496Z,85.75
2019-03-30T01:28:01.106Z,85.69
2019-03-30T01:30:31.189Z,85.93
2019-03-30T01:33:00.691Z,86.38
2019-03-30T01:35:30.059Z,86.38
2019-03-30T01:37:59.500Z,86.43
2019-03-30T01:40:28.966Z,86.48
2019-03-30T01:42:58.560Z,86.80
2019-03-30T01:45:28.873Z,86.98
2019-03-30T01:47:58.527Z,87.12
2019-03-30T01:50:28.982Z,87.10
2019-03-30T01:52:58.567Z,86.75
2019-03-30T01:55:28.951Z,86.75
2019-03-30T01:57:58.576Z,86.81
2019-03-30T02:00:28.889Z,86.72
2019-03-30T02:02:58.542Z,86.59
2019-03-30T02:05:28.999Z,86.62
2019-03-30T02:07:58.617Z,86.60
2019-03-30T02:10:39.753Z,86.55
2019-03-30T02:13:09.380Z,86.35
2019-03-30T02:15:39.131Z,86.26
2019-03-30T02:18:09.532Z,86.32
2019-03-30T02:20:41.562Z,86.51
2019-03-30T02:23:10.990Z,86.80
2019-03-30T02:25:40.646Z,87.03
2019-03-30T02:28:10.068Z,87.33
2019-03-30T02:30:39.756Z,87.68
2019-03-30T02:33:09.190Z,87.78
2019-03-30T02:35:38.856Z,88.10
2019-03-30T02:38:08.499Z,88.10
2019-03-30T02:40:38.169Z,88.09
2019-03-30T02:43:09.096Z,88.09
2019-03-30T02:45:38.937Z,88.26
2019-03-30T02:48:08.291Z,88.32
2019-03-30T02:50:49.820Z,88.33
2019-03-30T02:53:11.737Z,88.35
2019-03-30T02:55:41.204Z,88.20
2019-03-30T02:58:10.702Z,88.20
2019-03-30T03:00:40.367Z,88.29
2019-03-30T03:03:10.072Z,88.50
2019-03-30T03:05:39.824Z,88.80
2019-03-30T03:08:09.181Z,88.97
2019-03-30T03:10:38.778Z,89.16
2019-03-30T03:13:09.188Z,89.26
2019-03-30T03:15:39.037Z,89.31
2019-03-30T03:18:08.395Z,89.39
2019-03-30T03:20:39.551Z,89.46
2019-03-30T03:23:08.923Z,89.52
2019-03-30T03:25:38.283Z,89.63
2019-03-30T03:28:07.766Z,89.65
2019-03-30T03:30:37.402Z,89.69
2019-03-30T03:33:06.869Z,89.77
2019-03-30T03:35:36.262Z,89.82
2019-03-30T03:38:05.839Z,89.81
2019-03-30T03:40:35.234Z,89.97
2019-03-30T03:43:04.801Z,89.99
2019-03-30T03:45:35.123Z,89.90
2019-03-30T03:48:04.785Z,89.79
2019-03-30T03:50:40.149Z,89.65
2019-03-30T03:53:11.450Z,89.54
2019-03-30T03:55:41.348Z,89.41
2019-03-30T03:58:11.863Z,89.53
2019-03-30T04:00:41.547Z,89.66
2019-03-30T04:03:12.064Z,89.76
2019-03-30T04:05:45.036Z,89.94
2019-03-30T04:08:14.390Z,90.18
2019-03-30T04:10:46.666Z,90.38
2019-03-30T04:13:16.097Z,90.54
2019-03-30T04:15:47.166Z,91.19
2019-03-30T04:18:17.708Z,91.43
2019-03-30T04:20:47.395Z,91.39
2019-03-30T04:23:17.717Z,91.39
2019-03-30T04:25:47.831Z,91.24
2019-03-30T04:28:17.214Z,91.44
2019-03-30T04:30:46.567Z,91.41
2019-03-30T04:33:16.095Z,91.34
2019-03-30T04:35:45.452Z,91.33
2019-03-30T04:38:14.989Z,91.19
2019-03-30T04:40:44.364Z,91.20
2019-03-30T04:43:13.963Z,91.19
2019-03-30T04:45:43.616Z,91.18
2019-03-30T04:48:13.078Z,91.19
2019-03-30T04:50:42.433Z,91.03
2019-03-30T04:53:12.048Z,91.04
2019-03-30T04:55:41.412Z,91.25
2019-03-30T04:58:11.012Z,91.54
2019-03-30T05:00:40.606Z,91.54
2019-03-30T05:03:10.118Z,91.77
2019-03-30T05:05:43.098Z,92.01
2019-03-30T05:08:12.181Z,92.03
2019-03-30T05:10:41.529Z,92.18
2019-03-30T05:13:11.020Z,92.31
2019-03-30T05:15:40.382Z,92.34
2019-03-30T05:18:10.335Z,92.15
2019-03-30T05:20:39.983Z,91.89
2019-03-30T05:23:09.362Z,91.69
2019-03-30T05:25:39.539Z,91.55
2019-03-30T05:28:10.382Z,91.34
2019-03-30T05:30:40.043Z,91.13
2019-03-30T05:33:11.211Z,90.99
2019-03-30T05:35:40.968Z,90.91
2019-03-30T05:38:10.589Z,90.70
2019-03-30T05:40:40.249Z,90.79
2019-03-30T05:43:09.627Z,90.78
2019-03-30T05:45:39.235Z,90.90
2019-03-30T05:48:10.138Z,91.28
2019-03-30T05:50:39.500Z,91.47
2019-03-30T05:53:09.444Z,91.61
2019-03-30T05:55:40.754Z,91.72
2019-03-30T05:58:10.133Z,91.84
2019-03-30T06:00:39.489Z,91.96
2019-03-30T06:03:10.476Z,91.99
2019-03-30T06:05:41.214Z,92.14
2019-03-30T06:08:10.892Z,92.17
2019-03-30T06:10:40.560Z,92.09
2019-03-30T06:13:10.386Z,91.93
2019-03-30T06:15:40.012Z,91.69
2019-03-30T06:18:11.372Z,91.69
2019-03-30T06:20:40.744Z,91.56
2019-03-30T06:23:10.584Z,91.30
2019-03-30T06:25:40.235Z,91.30
2019-03-30T06:28:09.898Z,90.99
2019-03-30T06:30:40.527Z,90.63
2019-03-30T06:33:10.206Z,90.12
2019-03-30T06:35:39.564Z,89.68
2019-03-30T06:38:09.265Z,89.06
2019-03-30T06:40:38.706Z,88.06
2019-03-30T06:43:08.309Z,86.90
2019-03-30T06:45:37.676Z,86.19
2019-03-30T06:48:07.353Z,85.54
2019-03-30T06:50:36.764Z,85.05
2019-03-30T06:53:06.301Z,83.75
2019-03-30T06:55:35.704Z,83.75
2019-03-30T06:58:07.005Z,83.35
2019-03-30T07:00:37.057Z,83.35
2019-03-30T07:03:07.188Z,82.88
2019-03-30T07:05:38.458Z,81.31
2019-03-30T07:08:11.864Z,80.26
2019-03-30T07:10:43.588Z,80.12
2019-03-30T07:13:14.815Z,79.00
2019-03-30T07:15:48.364Z,79.00
2019-03-30T07:18:19.952Z,77.87
2019-03-30T07:20:49.388Z,76.75
2019-03-30T07:23:19.033Z,76.49
2019-03-30T07:25:48.397Z,76.02
2019-03-30T07:28:18.020Z,75.77
2019-03-30T07:30:47.469Z,75.21
2019-03-30T07:33:17.139Z,74.10
2019-03-30T07:35:46.508Z,73.23
2019-03-30T07:38:15.898Z,72.62
2019-03-30T07:40:45.604Z,71.90
2019-03-30T07:43:15.280Z,72.22
2019-03-30T07:45:44.941Z,71.33
2019-03-30T07:48:14.466Z,70.55
2019-03-30T07:50:43.834Z,69.03
2019-03-30T07:53:25.508Z,68.80
2019-03-30T07:55:45.316Z,68.48
2019-03-30T07:58:16.395Z,67.82
2019-03-30T08:00:46.849Z,65.60
2019-03-30T08:03:16.528Z,65.91
2019-03-30T08:05:45.902Z,66.45
2019-03-30T08:08:15.486Z,66.65
2019-03-30T08:10:44.907Z,66.74
2019-03-30T08:13:14.430Z,64.81
2019-03-30T08:15:44.103Z,64.38
2019-03-30T08:18:13.589Z,63.64
2019-03-30T08:20:42.954Z,63.75
2019-03-30T08:23:12.512Z,62.82
2019-03-30T08:25:41.883Z,62.22
2019-03-30T08:28:11.497Z,60.87
2019-03-30T08:30:41.451Z,59.93
2019-03-30T08:33:11.800Z,59.79
2019-03-30T08:35:41.463Z,59.58
2019-03-30T08:38:10.851Z,58.57
2019-03-30T08:40:41.436Z,58.18
2019-03-30T08:43:12.041Z,58.20
2019-03-30T08:45:41.945Z,58.58
2019-03-30T08:48:11.325Z,57.27
2019-03-30T08:50:40.988Z,56.79
2019-03-30T08:53:10.700Z,55.96
2019-03-30T08:55:40.061Z,55.29
2019-03-30T08:58:09.964Z,55.08
2019-03-30T09:00:41.353Z,55.29
2019-03-30T09:03:11.010Z,55.82
2019-03-30T09:05:40.665Z,56.14
2019-03-30T09:08:11.858Z,55.63
2019-03-30T09:10:41.813Z,54.72
2019-03-30T09:13:11.196Z,53.79
2019-03-30T09:15:40.799Z,53.19
2019-03-30T09:18:10.421Z,53.27
2019-03-30T09:20:40.133Z,51.73
2019-03-30T09:23:09.828Z,50.80
2019-03-30T09:25:39.278Z,50.56
2019-03-30T09:28:08.987Z,50.83
2019-03-30T09:30:38.369Z,50.18
2019-03-30T09:33:07.863Z,50.81
2019-03-30T09:35:37.243Z,51.00
2019-03-30T09:38:06.826Z,50.29
2019-03-30T09:40:36.214Z,50.79
2019-03-30T09:43:05.814Z,50.59
2019-03-30T09:45:35.549Z,49.85
2019-03-30T09:48:04.919Z,49.55
2019-03-30T09:50:34.299Z,48.46
2019-03-30T09:53:03.859Z,47.34
2019-03-30T09:55:33.316Z,47.41
2019-03-30T09:58:02.817Z,46.41
2019-03-30T10:00:32.276Z,46.83
2019-03-30T10:03:05.944Z,45.51
2019-03-30T10:05:34.008Z,44.79
2019-03-30T10:08:03.446Z,44.79
2019-03-30T10:10:33.111Z,46.02
2019-03-30T10:13:03.069Z,45.67
2019-03-30T10:15:32.446Z,43.78
2019-03-30T10:18:04.524Z,44.08
2019-03-30T10:20:35.126Z,44.75
2019-03-30T10:23:04.513Z,44.20
2019-03-30T10:25:34.153Z,44.21
2019-03-30T10:28:03.884Z,44.57
2019-03-30T10:30:33.549Z,44.62
2019-03-30T10:33:03.072Z,44.16
2019-03-30T10:35:32.707Z,44.43
2019-03-30T10:38:02.084Z,42.80
2019-03-30T10:40:31.474Z,43.58
2019-03-30T10:43:02.824Z,43.65
2019-03-30T10:45:33.468Z,42.10
2019-03-30T10:48:04.505Z,42.12
2019-03-30T10:50:34.184Z,42.08
2019-03-30T10:53:04.213Z,42.94
2019-03-30T10:55:33.887Z,42.94
2019-03-30T10:58:03.245Z,42.97
2019-03-30T11:00:35.473Z,41.93
2019-03-30T11:03:05.455Z,42.46
2019-03-30T11:05:35.324Z,40.75
2019-03-30T11:08:05.049Z,41.54
2019-03-30T11:10:34.422Z,40.75
2019-03-30T11:13:03.865Z,41.52
2019-03-30T11:15:34.289Z,41.59
2019-03-30T11:18:04.584Z,42.08
2019-03-30T11:20:35.297Z,43.00
2019-03-30T11:23:05.015Z,43.00
2019-03-30T11:25:34.428Z,42.66
2019-03-30T11:28:04.237Z,41.91
2019-03-30T11:30:33.605Z,42.10
2019-03-30T11:33:03.099Z,42.28
2019-03-30T11:35:32.478Z,40.54
2019-03-30T11:38:02.054Z,40.69
2019-03-30T11:40:32.487Z,40.70
2019-03-30T11:43:02.180Z,41.12
2019-03-30T11:45:31.546Z,40.68
2019-03-30T11:48:01.132Z,41.90
2019-03-30T11:50:30.519Z,40.52
2019-03-30T11:53:00.123Z,40.70
2019-03-30T11:55:30.429Z,39.93
2019-03-30T11:57:59.800Z,40.18
2019-03-30T12:00:32.961Z,39.86
2019-03-30T12:03:02.338Z,39.73
2019-03-30T12:05:31.717Z,39.44
2019-03-30T12:08:01.163Z,39.70
2019-03-30T12:10:30.538Z,40.25
2019-03-30T12:13:00.246Z,40.22
2019-03-30T12:15:30.581Z,41.45
2019-03-30T12:18:00.204Z,40.10
2019-03-30T12:20:30.514Z,41.01
2019-03-30T12:23:00.241Z,41.02
2019-03-30T12:25:35.982Z,40.21
2019-03-30T12:28:01.792Z,40.29
2019-03-30T12:30:31.443Z,39.53
2019-03-30T12:33:01.369Z,39.42
2019-03-30T12:35:31.855Z,39.30
2019-03-30T12:38:03.707Z,38.30
2019-03-30T12:40:33.362Z,38.76
2019-03-30T12:43:02.735Z,38.97
2019-03-30T12:45:32.385Z,39.04
2019-03-30T12:48:01.762Z,38.50
2019-03-30T12:50:31.436Z,38.19
2019-03-30T12:53:02.153Z,39.10
2019-03-30T12:55:31.911Z,38.79
2019-03-30T12:58:01.319Z,38.29
2019-03-30T13:00:31.037Z,38.81
2019-03-30T13:03:00.458Z,38.91
2019-03-30T13:05:30.626Z,39.83
2019-03-30T13:08:00.236Z,40.37
2019-03-30T13:10:30.598Z,39.82
2019-03-30T13:12:59.965Z,40.28
2019-03-30T13:15:29.415Z,40.17
2019-03-30T13:17:58.799Z,39.69
2019-03-30T13:20:28.301Z,38.88
2019-03-30T13:22:57.662Z,38.49
2019-03-30T13:25:27.339Z,39.04
2019-03-30T13:27:56.951Z,38.95
2019-03-30T13:30:28.859Z,38.82
2019-03-30T13:32:58.356Z,40.10
2019-03-30T13:35:27.733Z,39.75
2019-03-30T13:37:57.303Z,39.82
2019-03-30T13:40:28.457Z,39.42
2019-03-30T13:42:58.091Z,39.78
2019-03-30T13:45:27.479Z,40.55
2019-03-30T13:47:56.846Z,40.98
2019-03-30T13:50:26.379Z,41.47
2019-03-30T13:52:55.743Z,41.91
2019-03-30T13:55:25.417Z,41.97
2019-03-30T13:57:54.818Z,41.63
2019-03-30T14:00:24.475Z,41.16
2019-03-30T14:02:53.835Z,39.98
2019-03-30T14:05:25.044Z,39.79
2019-03-30T14:07:54.414Z,40.83
2019-03-30T14:10:23.782Z,40.76
2019-03-30T14:12:53.476Z,41.25
2019-03-30T14:15:22.867Z,40.14
2019-03-30T14:17:52.903Z,41.04
2019-03-30T14:20:22.439Z,41.28
2019-03-30T14:22:51.897Z,41.47
2019-03-30T14:25:21.549Z,40.82
2019-03-30T14:27:50.924Z,40.94
2019-03-30T14:30:20.664Z,40.17
2019-03-30T14:32:51.089Z,40.37
2019-03-30T14:35:20.453Z,39.98
2019-03-30T14:37:49.836Z,39.59
2019-03-30T14:40:19.517Z,39.93
2019-03-30T14:42:48.879Z,39.93
2019-03-30T14:45:18.531Z,39.62
2019-03-30T14:47:47.895Z,39.49
2019-03-30T14:50:17.795Z,39.15
2019-03-30T14:52:47.744Z,38.96
2019-03-30T14:55:17.122Z,39.57
2019-03-30T14:57:47.458Z,40.50
2019-03-30T15:00:16.848Z,41.63
2019-03-30T15:02:46.559Z,41.42
2019-03-30T15:05:15.919Z,42.13
2019-03-30T15:07:45.713Z,42.99
2019-03-30T15:10:15.334Z,42.99
2019-03-30T15:12:44.922Z,42.14
2019-03-30T15:15:15.018Z,41.57
2019-03-30T15:17:44.674Z,40.45
2019-03-30T15:20:14.201Z,40.60
2019-03-30T15:22:43.850Z,40.94
2019-03-30T15:25:13.562Z,39.91
2019-03-30T15:27:44.457Z,39.86
2019-03-30T15:30:14.216Z,40.21
2019-03-30T15:32:43.933Z,39.78
2019-03-30T15:35:13.631Z,39.85
2019-03-30T15:37:43.295Z,40.21
2019-03-30T15:40:12.751Z,40.21
2019-03-30T15:42:42.315Z,40.27
2019-03-30T15:45:12.232Z,40.80
2019-03-30T15:47:42.937Z,40.83
2019-03-30T15:50:13.573Z,40.69
2019-03-30T15:52:43.358Z,40.41
2019-03-30T15:55:13.929Z,40.70
2019-03-30T15:57:43.301Z,41.46
2019-03-30T16:00:15.012Z,41.62
2019-03-30T16:02:44.417Z,42.02
2019-03-30T16:05:15.673Z,42.27
2019-03-30T16:07:45.645Z,42.56
2019-03-30T16:10:15.087Z,41.98
2019-03-30T16:12:44.483Z,42.00
2019-03-30T16:15:14.135Z,42.28
2019-03-30T16:17:43.813Z,42.99
2019-03-30T16:20:13.262Z,43.15
2019-03-30T16:22:43.258Z,43.18
2019-03-30T16:25:12.919Z,43.83
2019-03-30T16:27:42.493Z,44.16
2019-03-30T16:30:12.995Z,43.99
2019-03-30T16:32:42.460Z,44.19
2019-03-30T16:35:11.946Z,44.78
2019-03-30T16:37:41.327Z,44.95
2019-03-30T16:40:11.152Z,44.92
2019-03-30T16:42:41.216Z,44.96
2019-03-30T16:45:13.644Z,45.30
2019-03-30T16:47:44.472Z,45.92
2019-03-30T16:50:14.142Z,46.59
2019-03-30T16:52:44.111Z,47.06
2019-03-30T16:55:13.516Z,47.42
2019-03-30T16:57:44.291Z,47.70
2019-03-30T17:00:14.138Z,48.14
2019-03-30T17:02:43.522Z,48.47
2019-03-30T17:05:13.262Z,48.32
2019-03-30T17:07:42.961Z,48.09
2019-03-30T17:10:12.315Z,48.47
2019-03-30T17:12:41.993Z,48.75
2019-03-30T17:15:11.422Z,48.48
2019-03-30T17:17:41.456Z,49.19
2019-03-30T17:20:11.228Z,49.19
2019-03-30T17:22:41.218Z,49.37
2019-03-30T17:25:10.687Z,49.60
2019-03-30T17:27:41.398Z,49.49
2019-03-30T17:30:11.282Z,49.61
2019-03-30T17:32:40.679Z,49.57
2019-03-30T17:35:10.133Z,49.64
2019-03-30T17:37:39.496Z,49.59
2019-03-30T17:40:09.838Z,49.64
2019-03-30T17:42:41.130Z,49.59
2019-03-30T17:45:10.934Z,49.51
2019-03-30T17:47:40.926Z,49.87
2019-03-30T17:50:12.595Z,50.19
2019-03-30T17:52:42.408Z,50.58
2019-03-30T17:55:11.768Z,50.63
2019-03-30T17:57:41.275Z,50.19
2019-03-30T18:00:12.933Z,50.30
2019-03-30T18:02:44.952Z,50.17
2019-03-30T18:05:14.526Z,50.53
2019-03-30T18:07:44.665Z,50.59
2019-03-30T18:10:14.398Z,50.39
2019-03-30T18:12:43.747Z,50.31
2019-03-30T18:15:13.487Z,50.38
2019-03-30T18:17:43.173Z,50.57
2019-03-30T18:20:12.875Z,50.59
2019-03-30T18:22:42.620Z,50.78
2019-03-30T18:25:12.643Z,50.85
2019-03-30T18:27:42.380Z,51.13
2019-03-30T18:30:12.997Z,51.47
2019-03-30T18:32:44.229Z,51.70
2019-03-30T18:35:13.683Z,51.82
2019-03-30T18:37:43.672Z,52.05
2019-03-30T18:40:16.505Z,52.08
2019-03-30T18:42:46.240Z,52.32
2019-03-30T18:45:24.631Z,52.44
2019-03-30T18:47:55.206Z,52.63
2019-03-30T18:50:24.584Z,52.68
2019-03-30T18:52:54.208Z,53.30
2019-03-30T18:55:23.749Z,54.45
2019-03-30T18:57:53.336Z,54.56
2019-03-30T19:00:28.580Z,56.26
2019-03-30T19:02:58.284Z,56.91
2019-03-30T19:05:27.912Z,58.10
2019-03-30T19:07:57.862Z,59.05
2019-03-30T19:10:27.430Z,59.43
2019-03-30T19:12:56.834Z,60.52
2019-03-30T19:15:26.363Z,60.97
2019-03-30T19:17:55.751Z,61.42
2019-03-30T19:20:25.320Z,62.00
2019-03-30T19:22:54.721Z,62.22
2019-03-30T19:25:29.478Z,62.72
2019-03-30T19:27:57.625Z,63.50
2019-03-30T19:30:27.365Z,64.03
2019-03-30T19:32:58.301Z,64.67
2019-03-30T19:35:27.679Z,64.75
2019-03-30T19:37:57.319Z,65.33
2019-03-30T19:40:26.702Z,65.72
2019-03-30T19:42:57.534Z,66.26
2019-03-30T19:45:27.155Z,66.86
2019-03-30T19:47:56.520Z,67.10
2019-03-30T19:50:25.896Z,67.39
2019-03-30T19:52:55.363Z,67.70
2019-03-30T19:55:24.733Z,68.07
2019-03-30T19:57:54.110Z,68.56
2019-03-30T20:00:23.701Z,68.86
2019-03-30T20:02:53.067Z,69.26
2019-03-30T20:05:22.650Z,69.52
2019-03-30T20:07:52.014Z,69.84
2019-03-30T20:10:21.753Z,70.22
2019-03-30T20:12:51.119Z,70.32
2019-03-30T20:15:20.739Z,70.27
2019-03-30T20:17:50.159Z,70.32
2019-03-30T20:20:19.699Z,70.86
2019-03-30T20:22:51.181Z,71.25
2019-03-30T20:25:21.060Z,71.75
2019-03-30T20:27:50.972Z,72.32
2019-03-30T20:30:24.162Z,72.32
2019-03-30T20:32:51.784Z,72.48
2019-03-30T20:35:21.167Z,72.64
2019-03-30T20:37:50.724Z,72.73
2019-03-30T20:40:20.102Z,72.88
2019-03-30T20:42:49.876Z,72.96
2019-03-30T20:45:19.504Z,72.98
2019-03-30T20:47:48.868Z,73.01
2019-03-30T20:50:18.424Z,73.07
2019-03-30T20:52:48.078Z,73.08
2019-03-30T20:55:17.754Z,73.08
2019-03-30T20:57:47.124Z,72.79
2019-03-30T21:00:17.479Z,72.53
2019-03-30T21:02:47.040Z,72.49
2019-03-30T21:05:16.725Z,72.42
2019-03-30T21:07:46.843Z,72.21
2019-03-30T21:10:16.287Z,72.07
2019-03-30T21:12:45.861Z,71.94
2019-03-30T21:15:15.240Z,71.86
2019-03-30T21:17:44.910Z,71.94
2019-03-30T21:20:14.821Z,71.99
2019-03-30T21:22:45.991Z,71.93
2019-03-30T21:25:16.944Z,71.92
2019-03-30T21:27:46.326Z,72.01
2019-03-30T21:30:16.309Z,72.16
2019-03-30T21:32:46.046Z,72.35
2019-03-30T21:35:15.716Z,72.48
2019-03-30T21:37:45.656Z,72.69
2019-03-30T21:40:15.033Z,72.83
2019-03-30T21:42:44.405Z,72.91
2019-03-30T21:45:13.953Z,72.92
2019-03-30T21:47:43.314Z,72.99
2019-03-30T21:50:13.047Z,72.91
2019-03-30T21:52:42.424Z,73.16
2019-03-30T21:55:12.193Z,73.19
2019-03-30T21:57:41.873Z,73.18
2019-03-30T22:00:11.885Z,73.28
2019-03-30T22:02:41.377Z,73.29
2019-03-30T22:05:11.063Z,73.23
2019-03-30T22:07:41.000Z,73.11
2019-03-30T22:10:14.070Z,73.06
2019-03-30T22:12:43.566Z,73.15
2019-03-30T22:15:16.145Z,73.22
2019-03-30T22:17:45.833Z,73.33
2019-03-30T22:20:15.883Z,73.42
2019-03-30T22:22:45.517Z,73.58
2019-03-30T22:25:16.052Z,73.69
2019-03-30T22:27:45.446Z,73.59
2019-03-30T22:30:24.788Z,73.61
2019-03-30T22:32:46.560Z,73.67
2019-03-30T22:35:15.957Z,73.79
2019-03-30T22:37:45.635Z,74.06
2019-03-30T22:40:16.498Z,74.15
2019-03-30T22:42:46.120Z,74.28
2019-03-30T22:45:15.522Z,74.38
2019-03-30T22:47:45.478Z,74.33
2019-03-30T22:50:15.084Z,74.29
2019-03-30T22:52:44.770Z,74.08
2019-03-30T22:55:15.755Z,74.18
2019-03-30T22:57:45.538Z,74.28
2019-03-30T23:00:39.091Z,74.41
2019-03-30T23:03:06.556Z,74.33
2019-03-30T23:05:36.267Z,74.31
2019-03-30T23:08:07.421Z,74.83
2019-03-30T23:10:37.131Z,74.83
2019-03-30T23:13:07.733Z,74.69
2019-03-30T23:15:37.401Z,74.83
2019-03-30T23:18:08.005Z,74.99
2019-03-30T23:20:37.681Z,75.07
2019-03-30T23:23:07.418Z,75.19
2019-03-30T23:25:37.482Z,75.19
2019-03-30T23:28:07.156Z,75.24
2019-03-30T23:30:37.907Z,75.20
2019-03-30T23:33:07.292Z,75.13
2019-03-30T23:35:36.665Z,75.25
2019-03-30T23:38:06.099Z,75.37
2019-03-30T23:40:35.482Z,75.54
2019-03-30T23:43:05.153Z,75.75
2019-03-30T23:45:34.602Z,75.94
2019-03-30T23:48:04.232Z,75.94
2019-03-30T23:50:33.564Z,76.02
2019-03-30T23:53:03.129Z,75.99
2019-03-30T23:55:32.813Z,76.03
2019-03-30T23:58:02.238Z,76.27
